createdAt,value
2018-07-20T00:00:23.461Z,17.30
2018-07-20T00:02:52.213Z,17.10
2018-07-20T00:05:20.857Z,17.10
2018-07-20T00:07:49.478Z,17.10
2018-07-20T00:10:18.378Z,17.10
2018-07-20T00:12:47.062Z,17.00
2018-07-20T00:15:15.707Z,16.90
2018-07-20T00:17:44.364Z,16.90
2018-07-20T00:20:13.060Z,16.90
2018-07-20T00:22:41.763Z,16.90
2018-07-20T00:25:10.479Z,16.90
2018-07-20T00:27:39.211Z,16.90
2018-07-20T00:30:07.922Z,16.90
2018-07-20T00:32:36.610Z,16.80
2018-07-20T00:35:05.253Z,16.70
2018-07-20T00:37:33.883Z,16.70
2018-07-20T00:40:02.562Z,16.60
2018-07-20T00:42:31.172Z,16.50
2018-07-20T00:44:59.923Z,16.50
2018-07-20T00:47:28.571Z,16.50
2018-07-20T00:49:57.166Z,16.60
2018-07-20T00:52:25.805Z,16.50
2018-07-20T00:54:54.490Z,16.50
2018-07-20T00:57:23.152Z,16.40
2018-07-20T00:59:51.753Z,16.40
2018-07-20T01:02:20.322Z,16.40
2018-07-20T01:04:48.962Z,16.30
2018-07-20T01:07:17.517Z,16.30
2018-07-20T01:09:46.126Z,16.20
2018-07-20T01:12:14.756Z,16.30
2018-07-20T01:14:43.479Z,16.20
2018-07-20T01:17:12.283Z,16.20
2018-07-20T01:19:41.141Z,16.20
2018-07-20T01:22:09.846Z,16.20
2018-07-20T01:24:38.428Z,16.20
2018-07-20T01:27:07.171Z,16.20
2018-07-20T01:29:35.841Z,16.20
2018-07-20T01:32:04.624Z,16.10
2018-07-20T01:34:33.374Z,16.00
2018-07-20T01:37:01.989Z,16.00
2018-07-20T01:39:30.625Z,16.00
2018-07-20T01:41:59.311Z,16.00
2018-07-20T01:44:28.011Z,16.00
2018-07-20T01:46:56.705Z,15.90
2018-07-20T01:49:30.222Z,15.90
2018-07-20T01:51:58.893Z,15.90
2018-07-20T01:54:27.558Z,15.90
2018-07-20T01:56:56.198Z,15.90
2018-07-20T01:59:24.790Z,15.90
2018-07-20T02:04:24.672Z,15.90
2018-07-20T02:06:53.350Z,15.90
2018-07-20T02:09:21.962Z,15.80
2018-07-20T02:11:50.566Z,15.80
2018-07-20T02:14:19.140Z,15.70
2018-07-20T02:16:47.811Z,15.60
2018-07-20T02:19:16.630Z,15.60
2018-07-20T02:21:45.258Z,15.50
2018-07-20T02:24:13.917Z,15.50
2018-07-20T02:26:42.511Z,15.50
2018-07-20T02:29:11.249Z,15.50
2018-07-20T02:31:39.986Z,15.50
2018-07-20T02:34:08.909Z,15.60
2018-07-20T02:36:37.595Z,15.40
2018-07-20T02:39:09.994Z,15.20
2018-07-20T02:41:39.012Z,15.10
2018-07-20T02:46:36.216Z,15.20
2018-07-20T02:49:04.874Z,15.20
2018-07-20T02:51:33.646Z,15.10
2018-07-20T02:54:03.027Z,15.10
2018-07-20T02:56:31.898Z,15.00
2018-07-20T02:59:00.535Z,15.10
2018-07-20T03:01:29.410Z,15.00
2018-07-20T03:03:58.109Z,15.10
2018-07-20T03:06:26.759Z,15.20
2018-07-20T03:08:55.488Z,15.10
2018-07-20T03:11:24.112Z,15.00
2018-07-20T03:13:52.821Z,14.80
2018-07-20T03:16:21.509Z,14.90
2018-07-20T03:18:50.297Z,15.00
2018-07-20T03:21:19.043Z,15.00
2018-07-20T03:23:47.755Z,15.00
2018-07-20T03:26:16.507Z,15.00
2018-07-20T03:28:45.179Z,15.00
2018-07-20T03:31:13.830Z,15.00
2018-07-20T03:33:42.455Z,15.00
2018-07-20T03:36:11.141Z,15.00
2018-07-20T03:38:39.777Z,15.00
2018-07-20T03:41:08.600Z,15.00
2018-07-20T03:43:37.304Z,14.90
2018-07-20T03:46:05.990Z,14.80
2018-07-20T03:48:34.658Z,14.80
2018-07-20T03:51:03.391Z,14.80
2018-07-20T03:56:28.194Z,14.70
2018-07-20T03:58:56.857Z,14.80
2018-07-20T04:01:32.609Z,14.70
2018-07-20T04:12:59.934Z,15.20
2018-07-20T04:15:41.524Z,15.20
2018-07-20T04:18:10.297Z,15.30
2018-07-20T04:20:38.958Z,15.30
2018-07-20T04:23:11.443Z,15.40
2018-07-20T04:25:59.038Z,15.50
2018-07-20T04:28:27.693Z,15.40
2018-07-20T04:30:56.354Z,15.40
2018-07-20T04:33:33.304Z,15.50
2018-07-20T04:36:06.118Z,15.60
2018-07-20T04:38:34.982Z,15.70
2018-07-20T04:41:03.688Z,15.80
2018-07-20T04:43:32.413Z,15.90
2018-07-20T04:46:01.251Z,16.00
2018-07-20T04:48:29.965Z,16.00
2018-07-20T04:50:58.606Z,16.00
2018-07-20T04:53:27.378Z,16.10
2018-07-20T04:55:56.039Z,16.20
2018-07-20T04:58:26.757Z,16.20
2018-07-20T05:00:55.506Z,16.20
2018-07-20T05:03:24.219Z,16.30
2018-07-20T05:05:52.928Z,16.30
2018-07-20T05:08:21.490Z,16.40
2018-07-20T05:10:50.195Z,16.60
2018-07-20T05:13:18.898Z,16.60
2018-07-20T05:15:47.578Z,16.60
2018-07-20T05:18:16.260Z,16.80
2018-07-20T05:20:44.899Z,16.80
2018-07-20T05:25:41.990Z,17.20
2018-07-20T05:28:10.684Z,17.60
2018-07-20T05:30:39.398Z,17.90
2018-07-20T05:33:08.067Z,18.10
2018-07-20T05:35:36.683Z,18.10
2018-07-20T05:38:05.409Z,18.00
2018-07-20T05:40:34.073Z,18.00
2018-07-20T05:43:02.752Z,18.00
2018-07-20T05:45:31.465Z,18.10
2018-07-20T05:48:00.074Z,18.00
2018-07-20T05:50:28.696Z,17.90
2018-07-20T05:52:57.328Z,17.70
2018-07-20T05:55:26.055Z,17.70
2018-07-20T05:57:54.730Z,17.80
2018-07-20T06:00:23.391Z,17.80
2018-07-20T06:02:52.102Z,17.70
2018-07-20T06:05:20.751Z,17.70
2018-07-20T06:07:49.443Z,17.70
2018-07-20T06:10:18.146Z,17.60
2018-07-20T06:12:46.834Z,17.50
2018-07-20T06:15:15.516Z,17.40
2018-07-20T06:17:44.294Z,17.40
2018-07-20T06:20:12.949Z,17.40
2018-07-20T06:22:41.619Z,17.50
2018-07-20T06:25:10.315Z,17.60
2018-07-20T06:27:38.952Z,17.70
2018-07-20T06:30:08.222Z,17.90
2018-07-20T06:32:37.101Z,18.30
2018-07-20T06:35:05.876Z,18.60
2018-07-20T06:37:34.570Z,18.90
2018-07-20T06:40:03.271Z,19.20
2018-07-20T06:42:32.118Z,19.40
2018-07-20T06:45:00.774Z,19.60
2018-07-20T06:47:29.481Z,19.80
2018-07-20T06:49:58.210Z,20.00
2018-07-20T06:52:26.806Z,20.60
2018-07-20T06:54:55.452Z,22.00
2018-07-20T06:57:24.153Z,23.80
2018-07-20T06:59:52.884Z,25.20
2018-07-20T07:02:21.603Z,25.60
2018-07-20T07:04:50.289Z,25.80
2018-07-20T07:07:19.043Z,26.40
2018-07-20T07:09:47.658Z,26.50
2018-07-20T07:12:16.327Z,26.40
2018-07-20T07:14:45.097Z,26.40
2018-07-20T07:17:13.805Z,26.20
2018-07-20T07:19:42.920Z,26.00
2018-07-20T07:22:11.573Z,25.60
2018-07-20T07:27:37.413Z,27.80
2018-07-20T07:30:06.076Z,28.60
2018-07-20T07:32:34.742Z,28.30
2018-07-20T07:35:03.507Z,27.40
2018-07-20T07:37:32.147Z,27.00
2018-07-20T07:40:00.871Z,27.50
2018-07-20T07:42:29.536Z,29.70
2018-07-20T07:44:58.122Z,30.40
2018-07-20T07:47:26.742Z,32.50
2018-07-20T07:49:55.407Z,34.10
2018-07-20T07:52:23.979Z,34.80
2018-07-20T07:54:52.681Z,35.20
2018-07-20T07:57:21.264Z,35.30
2018-07-20T07:59:49.854Z,35.70
2018-07-20T08:02:18.449Z,36.10
2018-07-20T08:04:47.021Z,36.60
2018-07-20T08:07:15.615Z,37.30
2018-07-20T08:09:44.325Z,37.00
2018-07-20T08:12:12.835Z,36.90
2018-07-20T08:14:41.375Z,37.70
2018-07-20T08:17:10.076Z,38.90
2018-07-20T08:19:38.505Z,39.60
2018-07-20T08:22:06.978Z,37.90
2018-07-20T08:24:35.392Z,37.70
2018-07-20T08:27:03.879Z,38.60
2018-07-20T08:29:32.360Z,39.60
2018-07-20T08:32:00.796Z,40.20
2018-07-20T08:34:29.247Z,40.20
2018-07-20T08:36:57.849Z,39.50
2018-07-20T08:39:26.489Z,39.60
2018-07-20T08:41:55.102Z,39.10
2018-07-20T08:44:23.696Z,39.20
2018-07-20T08:46:52.246Z,39.10
2018-07-20T08:49:20.855Z,40.00
2018-07-20T08:51:49.595Z,40.40
2018-07-20T08:56:46.654Z,40.30
2018-07-20T08:59:15.198Z,39.50
2018-07-20T09:01:43.761Z,38.60
2018-07-20T09:04:12.393Z,38.80
2018-07-20T09:06:41.019Z,38.60
2018-07-20T09:09:10.068Z,39.60
2018-07-20T09:11:38.647Z,40.40
2018-07-20T09:14:07.283Z,40.20
2018-07-20T09:16:35.879Z,40.70
2018-07-20T09:19:04.510Z,40.00
2018-07-20T09:21:33.135Z,38.70
2018-07-20T09:24:01.707Z,37.40
2018-07-20T09:26:30.217Z,36.80
2018-07-20T09:28:58.803Z,35.90
2018-07-20T09:31:27.357Z,37.30
2018-07-20T09:33:55.967Z,36.80
2018-07-20T09:36:24.615Z,35.90
2018-07-20T09:41:21.468Z,34.70
2018-07-20T09:43:50.059Z,33.60
2018-07-20T09:46:18.751Z,32.20
2018-07-20T09:51:15.653Z,30.90
2018-07-20T09:53:44.261Z,30.50
2018-07-20T09:56:12.913Z,30.30
2018-07-20T09:58:41.511Z,30.20
2018-07-20T10:01:10.052Z,29.90
2018-07-20T10:03:38.722Z,29.60
2018-07-20T10:08:35.659Z,30.00
2018-07-20T10:11:04.273Z,30.20
2018-07-20T10:13:32.881Z,30.40
2018-07-20T10:16:01.520Z,30.20
2018-07-20T10:18:30.270Z,30.50
2018-07-20T10:20:58.834Z,30.50
2018-07-20T10:23:27.513Z,30.50
2018-07-20T10:25:56.241Z,30.90
2018-07-20T10:28:24.942Z,31.50
2018-07-20T10:30:53.654Z,33.80
2018-07-20T10:33:22.299Z,35.90
2018-07-20T10:35:50.846Z,37.90
2018-07-20T10:38:19.417Z,39.60
2018-07-20T10:40:47.983Z,40.30
2018-07-20T10:43:16.551Z,39.80
2018-07-20T10:45:45.110Z,39.30
2018-07-20T10:48:13.699Z,39.90
2018-07-20T10:50:42.311Z,41.10
2018-07-20T10:53:10.866Z,41.60
2018-07-20T10:55:39.455Z,42.00
2018-07-20T10:58:08.012Z,41.60
2018-07-20T11:00:36.542Z,41.90
2018-07-20T11:03:05.128Z,41.20
2018-07-20T11:05:34.018Z,40.60
2018-07-20T11:08:02.646Z,39.40
2018-07-20T11:10:35.532Z,39.30
2018-07-20T11:13:20.950Z,38.10
2018-07-20T11:15:49.546Z,36.60
2018-07-20T11:18:23.850Z,35.60
2018-07-20T11:21:06.812Z,34.70
2018-07-20T11:23:35.508Z,35.10
2018-07-20T11:26:05.198Z,36.80
2018-07-20T11:28:34.903Z,38.00
2018-07-20T11:31:03.580Z,37.50
2018-07-20T11:33:32.207Z,38.10
2018-07-20T11:36:00.977Z,38.00
2018-07-20T11:38:29.570Z,38.00
2018-07-20T11:40:58.186Z,37.90
2018-07-20T11:43:26.745Z,38.30
2018-07-20T11:45:55.311Z,37.70
2018-07-20T11:48:23.973Z,37.30
2018-07-20T11:50:52.528Z,36.60
2018-07-20T11:53:21.107Z,37.50
2018-07-20T11:55:49.705Z,37.10
2018-07-20T11:58:18.412Z,38.00
2018-07-20T12:00:47.009Z,38.20
2018-07-20T12:03:15.618Z,39.60
2018-07-20T12:05:44.219Z,40.10
2018-07-20T12:08:12.762Z,40.40
2018-07-20T12:10:41.299Z,41.70
2018-07-20T12:13:09.870Z,40.90
2018-07-20T12:15:38.456Z,39.40
2018-07-20T12:18:07.099Z,38.50
2018-07-20T12:20:35.663Z,37.70
2018-07-20T12:23:04.209Z,38.80
2018-07-20T12:25:32.771Z,40.00
2018-07-20T12:28:01.402Z,40.40
2018-07-20T12:30:29.977Z,40.40
2018-07-20T12:32:58.567Z,39.80
2018-07-20T12:35:27.126Z,37.70
2018-07-20T12:37:55.683Z,36.60
2018-07-20T12:40:24.265Z,36.80
2018-07-20T12:42:52.871Z,35.40
2018-07-20T12:45:21.424Z,34.30
2018-07-20T12:47:50.048Z,33.90
2018-07-20T12:50:18.772Z,33.60
2018-07-20T12:52:47.342Z,33.40
2018-07-20T12:55:15.979Z,33.20
2018-07-20T12:57:44.639Z,32.90
2018-07-20T13:00:13.277Z,32.50
2018-07-20T13:02:41.973Z,32.30
2018-07-20T13:05:10.539Z,32.20
2018-07-20T13:07:39.211Z,32.90
2018-07-20T13:10:07.875Z,34.20
2018-07-20T13:12:36.611Z,35.30
2018-07-20T13:17:34.179Z,37.50
2018-07-20T13:20:02.811Z,37.20
2018-07-20T13:22:31.511Z,36.30
2018-07-20T13:25:00.196Z,35.00
2018-07-20T13:30:33.777Z,33.60
2018-07-20T13:33:02.480Z,33.10
2018-07-20T13:35:31.168Z,32.90
2018-07-20T13:38:04.036Z,33.40
2018-07-20T13:40:32.718Z,34.60
2018-07-20T13:43:01.294Z,35.00
2018-07-20T13:45:30.004Z,35.10
2018-07-20T13:47:58.549Z,36.10
2018-07-20T13:50:30.677Z,36.30
2018-07-20T13:52:59.311Z,36.10
2018-07-20T13:55:27.870Z,35.50
2018-07-20T13:57:56.492Z,34.90
2018-07-20T14:00:25.186Z,34.30
2018-07-20T14:02:53.907Z,33.60
2018-07-20T14:05:34.461Z,33.30
2018-07-20T14:08:03.115Z,33.00
2018-07-20T14:10:31.758Z,32.50
2018-07-20T14:13:00.458Z,32.30
2018-07-20T14:15:29.122Z,31.90
2018-07-20T14:17:57.769Z,31.80
2018-07-20T14:20:26.404Z,31.40
2018-07-20T14:22:55.057Z,31.00
2018-07-20T14:25:23.700Z,30.70
2018-07-20T14:27:54.543Z,30.30
2018-07-20T14:33:22.560Z,29.10
2018-07-20T14:35:51.275Z,28.20
2018-07-20T14:38:20.094Z,27.70
2018-07-20T14:40:48.814Z,27.50
2018-07-20T14:43:17.537Z,27.30
2018-07-20T14:45:46.244Z,27.10
2018-07-20T14:48:14.962Z,26.70
2018-07-20T14:50:43.744Z,26.50
2018-07-20T14:53:12.398Z,26.40
2018-07-20T14:55:41.095Z,26.50
2018-07-20T14:58:09.686Z,26.80
2018-07-20T15:00:38.372Z,26.20
2018-07-20T15:03:07.066Z,25.00
2018-07-20T15:05:35.838Z,23.90
2018-07-20T15:08:04.450Z,23.20
2018-07-20T15:10:33.227Z,22.60
2018-07-20T15:13:01.889Z,22.40
2018-07-20T15:15:30.593Z,22.10
2018-07-20T15:17:59.405Z,21.90
2018-07-20T15:20:28.073Z,21.70
2018-07-20T15:22:56.822Z,21.60
2018-07-20T15:25:25.515Z,21.60
2018-07-20T15:27:54.235Z,21.60
2018-07-20T15:30:22.985Z,21.70
2018-07-20T15:32:51.784Z,21.60
2018-07-20T15:35:20.484Z,21.70
2018-07-20T15:37:49.481Z,21.70
2018-07-20T15:40:18.074Z,21.60
2018-07-20T15:46:05.700Z,20.20
2018-07-20T15:51:19.265Z,19.30
2018-07-20T15:53:47.980Z,19.20
2018-07-20T15:56:16.646Z,19.10
2018-07-20T15:58:45.345Z,18.90
2018-07-20T16:01:14.040Z,18.90
2018-07-20T16:03:42.861Z,18.90
2018-07-20T16:06:11.539Z,18.80
2018-07-20T16:08:40.258Z,18.80
2018-07-20T16:13:37.299Z,18.80
2018-07-20T16:16:06.102Z,18.70
2018-07-20T16:18:34.805Z,18.60
2018-07-20T16:21:03.617Z,18.50
2018-07-20T16:23:32.336Z,18.40
2018-07-20T16:26:01.242Z,18.20
2018-07-20T16:28:29.782Z,18.00
2018-07-20T16:31:06.403Z,17.80
2018-07-20T16:33:35.170Z,17.80
2018-07-20T16:36:03.994Z,17.90
2018-07-20T16:38:32.732Z,18.00
2018-07-20T16:41:01.507Z,18.00
2018-07-20T16:43:33.458Z,17.90
2018-07-20T16:46:02.242Z,17.80
2018-07-20T16:48:31.004Z,17.60
2018-07-20T16:50:59.817Z,17.60
2018-07-20T16:53:28.502Z,17.70
2018-07-20T16:55:57.240Z,17.60
2018-07-20T16:58:25.908Z,17.60
2018-07-20T17:00:54.644Z,17.60
2018-07-20T17:03:23.441Z,17.60
2018-07-20T17:05:52.175Z,17.70
2018-07-20T17:08:33.862Z,17.60
2018-07-20T17:11:02.600Z,17.80
2018-07-20T17:13:31.378Z,17.90
2018-07-20T17:16:19.889Z,18.00
2018-07-20T17:18:48.501Z,18.00
2018-07-20T17:21:17.144Z,18.00
2018-07-20T17:23:45.916Z,18.00
2018-07-20T17:26:15.590Z,18.10
2018-07-20T17:28:44.324Z,18.10
2018-07-20T17:31:13.049Z,18.30
2018-07-20T17:33:41.745Z,18.40
2018-07-20T17:36:10.491Z,18.40
2018-07-20T17:38:39.226Z,18.40
2018-07-20T17:41:07.943Z,18.50
2018-07-20T17:43:36.673Z,18.50
2018-07-20T17:46:05.315Z,18.50
2018-07-20T17:48:33.997Z,18.60
2018-07-20T17:51:02.836Z,18.60
2018-07-20T17:53:31.450Z,18.50
2018-07-20T17:56:00.362Z,18.40
2018-07-20T17:58:29.084Z,18.40
2018-07-20T18:00:57.813Z,18.30
2018-07-20T18:03:26.503Z,18.40
2018-07-20T18:05:55.195Z,18.40
2018-07-20T18:08:29.354Z,18.40
2018-07-20T18:11:00.461Z,18.40
2018-07-20T18:13:32.959Z,18.40
2018-07-20T18:16:01.665Z,18.50
2018-07-20T18:21:41.336Z,18.30
2018-07-20T18:24:10.017Z,18.20
2018-07-20T18:26:38.817Z,18.20
2018-07-20T18:29:07.422Z,18.20
2018-07-20T18:31:36.229Z,18.20
2018-07-20T18:34:05.053Z,18.30
2018-07-20T18:36:33.743Z,18.20
2018-07-20T18:39:02.426Z,18.20
2018-07-20T18:41:31.110Z,18.20
2018-07-20T18:43:59.894Z,18.10
2018-07-20T18:46:28.653Z,18.10
2018-07-20T18:48:57.442Z,18.00
2018-07-20T18:51:26.166Z,18.00
2018-07-20T18:53:54.850Z,17.90
2018-07-20T18:56:25.611Z,17.90
2018-07-20T18:58:54.371Z,17.80
2018-07-20T19:01:23.215Z,17.70
2018-07-20T19:09:39.372Z,17.60
2018-07-20T19:12:08.183Z,17.60
2018-07-20T19:14:36.976Z,17.50
2018-07-20T19:17:05.851Z,17.50
2018-07-20T19:19:34.573Z,17.40
2018-07-20T19:22:03.258Z,17.30
2018-07-20T19:24:32.001Z,17.20
2018-07-20T19:27:00.747Z,17.20
2018-07-20T19:29:29.459Z,17.10
2018-07-20T19:31:58.207Z,17.10
2018-07-20T19:34:26.967Z,17.20
2018-07-20T19:36:56.043Z,17.10
2018-07-20T19:39:24.771Z,17.10
2018-07-20T19:41:53.431Z,17.00
2018-07-20T19:44:22.133Z,17.00
2018-07-20T19:46:50.909Z,17.00
2018-07-20T19:49:19.613Z,17.00
2018-07-20T19:51:48.234Z,17.00
2018-07-20T19:54:16.947Z,17.10
2018-07-20T19:56:46.007Z,17.00
2018-07-20T19:59:21.813Z,17.00
2018-07-20T20:02:08.960Z,17.00
2018-07-20T20:04:37.569Z,17.00
2018-07-20T20:07:06.402Z,17.00
2018-07-20T20:09:35.096Z,17.00
2018-07-20T20:12:03.791Z,17.00
2018-07-20T20:14:32.513Z,16.90
2018-07-20T20:17:07.622Z,16.90
2018-07-20T20:19:36.397Z,16.90
2018-07-20T20:22:05.171Z,17.00
2018-07-20T20:24:33.847Z,17.00
2018-07-20T20:27:02.611Z,17.10
2018-07-20T20:29:31.364Z,17.10
2018-07-20T20:32:00.085Z,17.10
2018-07-20T20:34:28.757Z,17.00
2018-07-20T20:36:57.583Z,17.00
2018-07-20T20:39:26.265Z,17.00
2018-07-20T20:41:55.005Z,16.90
2018-07-20T20:44:23.696Z,16.90
2018-07-20T20:46:52.358Z,16.80
2018-07-20T20:49:21.022Z,16.80
2018-07-20T20:51:49.753Z,16.80
2018-07-20T20:54:18.446Z,16.80
2018-07-20T20:56:47.062Z,16.80
2018-07-20T20:59:15.843Z,16.80
2018-07-20T21:01:44.527Z,16.80
2018-07-20T21:04:13.255Z,16.80
2018-07-20T21:06:41.968Z,16.80
2018-07-20T21:09:10.919Z,16.70
2018-07-20T21:11:39.698Z,16.60
2018-07-20T21:14:08.295Z,16.60
2018-07-20T21:16:37.156Z,16.60
2018-07-20T21:19:05.895Z,16.60
2018-07-20T21:21:34.599Z,16.50
2018-07-20T21:24:03.262Z,16.50
2018-07-20T21:26:32.026Z,16.50
2018-07-20T21:29:00.773Z,16.40
2018-07-20T21:31:29.467Z,16.40
2018-07-20T21:33:58.160Z,16.40
2018-07-20T21:36:26.889Z,16.50
2018-07-20T21:38:55.636Z,16.40
2018-07-20T21:41:24.617Z,16.40
2018-07-20T21:43:53.358Z,16.30
2018-07-20T21:46:22.022Z,16.30
2018-07-20T21:48:50.702Z,16.30
2018-07-20T21:51:19.352Z,16.20
2018-07-20T21:53:48.070Z,16.10
2018-07-20T21:56:16.843Z,16.00
2018-07-20T21:58:45.553Z,16.00
2018-07-20T22:01:14.288Z,15.90
2018-07-20T22:03:43.049Z,15.90
2018-07-20T22:06:11.725Z,15.90
2018-07-20T22:08:40.344Z,15.80
2018-07-20T22:11:09.102Z,15.90
2018-07-20T22:13:37.775Z,15.90
2018-07-20T22:16:06.711Z,15.80
2018-07-20T22:18:35.481Z,15.90
2018-07-20T22:21:04.262Z,15.90
2018-07-20T22:23:32.996Z,15.80
2018-07-20T22:26:01.763Z,15.70
2018-07-20T22:28:30.516Z,15.60
2018-07-20T22:30:59.232Z,15.60
2018-07-20T22:33:27.964Z,15.60
2018-07-20T22:35:56.646Z,15.60
2018-07-20T22:38:25.365Z,15.50
2018-07-20T22:40:54.114Z,15.50
2018-07-20T22:43:22.899Z,15.50
2018-07-20T22:45:51.619Z,15.40
2018-07-20T22:48:20.332Z,15.40
2018-07-20T22:50:49.885Z,15.40
2018-07-20T22:53:18.617Z,15.30
2018-07-20T22:55:47.309Z,15.20
2018-07-20T22:58:16.024Z,15.10
2018-07-20T23:00:44.677Z,15.10
2018-07-20T23:03:13.607Z,15.00
2018-07-20T23:05:42.351Z,15.00
2018-07-20T23:08:11.051Z,15.00
2018-07-20T23:10:39.800Z,15.00
2018-07-20T23:13:08.430Z,14.90
2018-07-20T23:15:37.159Z,14.90
2018-07-20T23:18:06.190Z,14.80
2018-07-20T23:20:34.829Z,14.70
2018-07-20T23:23:03.557Z,14.70
2018-07-20T23:25:32.187Z,14.70
2018-07-20T23:28:00.897Z,14.70
2018-07-20T23:30:29.596Z,14.80
2018-07-20T23:32:58.249Z,14.80
2018-07-20T23:35:26.867Z,14.80
2018-07-20T23:37:55.537Z,14.80
2018-07-20T23:40:24.238Z,14.90
2018-07-20T23:42:53.105Z,14.90
2018-07-20T23:45:21.802Z,14.90
2018-07-20T23:47:50.502Z,14.90
2018-07-20T23:50:19.275Z,14.90
2018-07-20T23:52:48.071Z,14.90
2018-07-20T23:55:16.756Z,14.90
2018-07-20T23:57:45.456Z,14.80
